Overview Statistics Trail Chart Weather Telemetry Raw packets
 

This is the latest recevied weather packets stored in our database for station/object OE6ATD-13. If no packets are shown the sender has not sent any weather packets the latest 10 day(s).

<< 33 34 35 36 37 38 39 >>
Time Temp. Humidity Pressure Rain* Wind** Luminosity Snow
1788197430 - - 1015.6 hPa 0.25 mm - 1 W/m² -
1788196826 - - 1015.9 hPa 0.25 mm - 5 W/m² -
1788196221 - - 1014.5 hPa 0.25 mm - 7 W/m² -
1788195617 - - 1014.8 hPa 0.25 mm - 2 W/m² -
1788195027 25.56° C 58% 1014.1 hPa 0.25 mm - 0 W/m² -
1788194440 27.78° C 43% 1013.7 hPa 0 mm - 0 W/m² -
1788193818 29.44° C 38% 1013.5 hPa 0 mm - 5 W/m² -
1788193229 30° C 34% 1013.5 hPa 0 mm - 12 W/m² -
1788192625 30.56° C 33% 1013.5 hPa 0 mm - 21 W/m² -
1788192021 31.11° C 32% 1013.5 hPa 0 mm - 32 W/m² -
1788191417 32.22° C 28% 1013.5 hPa 0 mm - 43 W/m² -
1788190827 33.89° C 25% 1013.5 hPa 0 mm - 172 W/m² -
1788190223 35° C 24% 1013.4 hPa 0 mm - 249 W/m² -
1788189619 34.44° C 23% 1013.5 hPa 0 mm - 240 W/m² -
1788189030 35° C 22% 1013.5 hPa 0 mm - 326 W/m² -
1788188426 35.56° C 22% 1013.4 hPa 0 mm - 328 W/m² -
1788187822 36.11° C 22% 1013.4 hPa 0 mm - 343 W/m² -
1788187217 35.56° C 20% 1013.4 hPa 0 mm - 385 W/m² -
1788186629 35.56° C 20% 1013.5 hPa 0 mm - 435 W/m² -
1788186024 35° C 20% 1013.6 hPa 0 mm - 463 W/m² -
1788185420 35° C 20% 1013.6 hPa 0 mm - 496 W/m² -
1788184816 35° C 21% 1013.6 hPa 0 mm - 524 W/m² -
1788184227 34.44° C 23% 1013.8 hPa 0 mm - 587 W/m² -
1788183622 35° C 23% 1013.8 hPa 0 mm - 649 W/m² -
1788183018 35° C 25% 1013.9 hPa 0 mm - 688 W/m² -

* Rain latest hour (hover to see other rain measurements)
** Current wind speed in m/s (hover to see current wind gust speed)